createdAt,value
2017-07-19T00:00:07.266Z,1034.95
2017-07-19T00:01:07.264Z,1034.93
2017-07-19T00:02:07.511Z,1034.96
2017-07-19T00:03:07.260Z,1034.96
2017-07-19T00:04:07.255Z,1034.96
2017-07-19T00:05:07.249Z,1034.96
2017-07-19T00:06:07.242Z,1034.96
2017-07-19T00:07:07.541Z,1034.96
2017-07-19T00:08:07.233Z,1034.97
2017-07-19T00:09:07.234Z,1034.93
2017-07-19T00:10:07.228Z,1034.95
2017-07-19T00:11:07.222Z,1034.94
2017-07-19T00:12:07.468Z,1034.95
2017-07-19T00:13:07.218Z,1034.91
2017-07-19T00:14:07.209Z,1034.92
2017-07-19T00:15:07.208Z,1034.9
2017-07-19T00:16:07.203Z,1034.93
2017-07-19T00:17:07.452Z,1034.91
2017-07-19T00:18:07.192Z,1034.92
2017-07-19T00:19:07.191Z,1034.92
2017-07-19T00:20:07.189Z,1034.91
2017-07-19T00:21:07.185Z,1034.88
2017-07-19T00:22:07.426Z,1034.86
2017-07-19T00:23:07.175Z,1034.83
2017-07-19T00:24:07.171Z,1034.85
2017-07-19T00:25:07.168Z,1034.83
2017-07-19T00:26:07.161Z,1034.8
2017-07-19T00:27:07.408Z,1034.78
2017-07-19T00:28:07.150Z,1034.8
2017-07-19T00:29:07.148Z,1034.8
2017-07-19T00:30:07.143Z,1034.85
2017-07-19T00:31:07.139Z,1034.84
2017-07-19T00:32:07.484Z,1034.84
2017-07-19T00:33:07.133Z,1034.79
2017-07-19T00:34:07.132Z,1034.81
2017-07-19T00:35:07.123Z,1034.82
2017-07-19T00:36:07.117Z,1034.8
2017-07-19T00:37:07.113Z,1034.8
2017-07-19T00:38:07.113Z,1034.79
2017-07-19T00:39:07.108Z,1034.8
2017-07-19T00:40:07.104Z,1034.81
2017-07-19T00:41:07.095Z,1034.8
2017-07-19T00:42:07.099Z,1034.77
2017-07-19T00:43:07.088Z,1034.77
2017-07-19T00:44:07.082Z,1034.74
2017-07-19T00:45:07.082Z,1034.75
2017-07-19T00:46:07.074Z,1034.72
2017-07-19T00:47:07.071Z,1034.75
2017-07-19T00:48:07.066Z,1034.72
2017-07-19T00:49:07.064Z,1034.7
2017-07-19T00:50:07.061Z,1034.71
2017-07-19T00:51:07.055Z,1034.71
2017-07-19T00:52:07.053Z,1034.72
2017-07-19T00:53:07.045Z,1034.73
2017-07-19T00:54:07.042Z,1034.73
2017-07-19T00:55:07.037Z,1034.72
2017-07-19T00:56:07.035Z,1034.7
2017-07-19T00:57:07.031Z,1034.73
2017-07-19T00:58:07.027Z,1034.72
2017-07-19T00:59:07.016Z,1034.71
2017-07-19T01:00:07.017Z,1034.76
2017-07-19T01:01:07.012Z,1034.74
2017-07-19T01:02:07.009Z,1034.75
2017-07-19T01:03:07.004Z,1034.74
2017-07-19T01:04:07.001Z,1034.79
2017-07-19T01:05:06.997Z,1034.78
2017-07-19T01:06:06.990Z,1034.82
2017-07-19T01:07:06.987Z,1034.76
2017-07-19T01:08:06.982Z,1034.74
2017-07-19T01:09:06.977Z,1034.74
2017-07-19T01:10:06.975Z,1034.77
2017-07-19T01:11:06.968Z,1034.75
2017-07-19T01:12:06.964Z,1034.76
2017-07-19T01:13:06.960Z,1034.77
2017-07-19T01:14:06.954Z,1034.77
2017-07-19T01:15:06.947Z,1034.77
2017-07-19T01:16:06.947Z,1034.83
2017-07-19T01:17:06.937Z,1034.77
2017-07-19T01:18:06.938Z,1034.83
2017-07-19T01:19:06.934Z,1034.77
2017-07-19T01:20:06.931Z,1034.8
2017-07-19T01:21:06.921Z,1034.77
2017-07-19T01:22:06.920Z,1034.73
2017-07-19T01:23:06.912Z,1034.7
2017-07-19T01:24:06.909Z,1034.7
2017-07-19T01:25:06.902Z,1034.73
2017-07-19T01:26:06.900Z,1034.71
2017-07-19T01:27:06.893Z,1034.75
2017-07-19T01:28:06.892Z,1034.73
2017-07-19T01:29:06.886Z,1034.69
2017-07-19T01:30:06.883Z,1034.69
2017-07-19T01:31:06.875Z,1034.68
2017-07-19T01:32:06.874Z,1034.66
2017-07-19T01:33:06.866Z,1034.67
2017-07-19T01:34:06.864Z,1034.64
2017-07-19T01:35:06.857Z,1034.63
2017-07-19T01:36:06.855Z,1034.61
2017-07-19T01:37:06.850Z,1034.64
2017-07-19T01:38:06.847Z,1034.58
2017-07-19T01:39:06.839Z,1034.58
2017-07-19T01:40:06.832Z,1034.59
2017-07-19T01:41:06.833Z,1034.59
2017-07-19T01:42:06.826Z,1034.58
2017-07-19T01:43:06.823Z,1034.53
2017-07-19T01:44:06.818Z,1034.52
2017-07-19T01:45:06.813Z,1034.5
2017-07-19T01:46:06.809Z,1034.5
2017-07-19T01:47:06.804Z,1034.48
2017-07-19T01:48:06.801Z,1034.51
2017-07-19T01:49:06.792Z,1034.49
2017-07-19T01:50:06.791Z,1034.48
2017-07-19T01:51:06.788Z,1034.51
2017-07-19T01:52:06.784Z,1034.47
2017-07-19T01:53:06.776Z,1034.49
2017-07-19T01:54:06.768Z,1034.51
2017-07-19T01:55:06.767Z,1034.48
2017-07-19T01:56:06.763Z,1034.47
2017-07-19T01:57:06.756Z,1034.5
2017-07-19T01:58:06.754Z,1034.49
2017-07-19T01:59:06.751Z,1034.46
2017-07-19T02:00:06.746Z,1034.49
2017-07-19T02:01:06.737Z,1034.47
2017-07-19T02:02:06.732Z,1034.47
2017-07-19T02:03:06.728Z,1034.42
2017-07-19T02:04:06.725Z,1034.46
2017-07-19T02:05:06.716Z,1034.41
2017-07-19T02:06:06.716Z,1034.41
2017-07-19T02:07:06.714Z,1034.43
2017-07-19T02:08:06.704Z,1034.44
2017-07-19T02:09:06.697Z,1034.43
2017-07-19T02:10:06.695Z,1034.39
2017-07-19T02:11:06.693Z,1034.37
2017-07-19T02:12:06.685Z,1034.36
2017-07-19T02:13:06.682Z,1034.43
2017-07-19T02:14:06.676Z,1034.36
2017-07-19T02:15:06.671Z,1034.32
2017-07-19T02:16:06.665Z,1034.36
2017-07-19T02:17:06.661Z,1034.31
2017-07-19T02:18:06.658Z,1034.32
2017-07-19T02:19:06.653Z,1034.33
2017-07-19T02:20:06.647Z,1034.36
2017-07-19T02:21:06.645Z,1034.32
2017-07-19T02:22:06.634Z,1034.34
2017-07-19T02:23:06.628Z,1034.36
2017-07-19T02:24:06.627Z,1034.36
2017-07-19T02:25:06.624Z,1034.32
2017-07-19T02:26:06.619Z,1034.35
2017-07-19T02:27:06.619Z,1034.38
2017-07-19T02:28:06.609Z,1034.36
2017-07-19T02:29:06.605Z,1034.33
2017-07-19T02:30:06.598Z,1034.33
2017-07-19T02:31:06.593Z,1034.32
2017-07-19T02:32:06.588Z,1034.3
2017-07-19T02:33:06.584Z,1034.36
2017-07-19T02:34:06.577Z,1034.31
2017-07-19T02:35:06.576Z,1034.36
2017-07-19T02:36:06.566Z,1034.35
2017-07-19T02:37:06.565Z,1034.36
2017-07-19T02:38:06.567Z,1034.37
2017-07-19T02:39:06.556Z,1034.35
2017-07-19T02:40:06.549Z,1034.33
2017-07-19T02:41:06.544Z,1034.37
2017-07-19T02:42:06.540Z,1034.34
2017-07-19T02:43:06.541Z,1034.36
2017-07-19T02:44:06.525Z,1034.38
2017-07-19T02:45:06.522Z,1034.37
2017-07-19T02:46:06.520Z,1034.38
2017-07-19T02:47:06.511Z,1034.36
2017-07-19T02:48:06.510Z,1034.42
2017-07-19T02:49:06.504Z,1034.38
2017-07-19T02:50:06.500Z,1034.43
2017-07-19T02:51:06.490Z,1034.42
2017-07-19T02:52:06.486Z,1034.41
2017-07-19T02:53:06.504Z,1034.39
2017-07-19T02:54:06.476Z,1034.36
2017-07-19T02:55:06.472Z,1034.38
2017-07-19T02:56:06.470Z,1034.38
2017-07-19T02:57:06.464Z,1034.38
2017-07-19T02:58:06.459Z,1034.39
2017-07-19T02:59:06.452Z,1034.37
2017-07-19T03:00:06.449Z,1034.42
2017-07-19T03:01:06.443Z,1034.39
2017-07-19T03:02:06.441Z,1034.37
2017-07-19T03:03:06.431Z,1034.36
2017-07-19T03:04:06.429Z,1034.32
2017-07-19T03:05:06.422Z,1034.34
2017-07-19T03:06:06.417Z,1034.36
2017-07-19T03:07:06.409Z,1034.34
2017-07-19T03:08:06.406Z,1034.33
2017-07-19T03:09:06.401Z,1034.36
2017-07-19T03:10:06.399Z,1034.36
2017-07-19T03:11:06.393Z,1034.39
2017-07-19T03:12:06.388Z,1034.35
2017-07-19T03:13:06.383Z,1034.39
2017-07-19T03:14:06.374Z,1034.35
2017-07-19T03:15:06.372Z,1034.4
2017-07-19T03:16:06.365Z,1034.4
2017-07-19T03:17:06.359Z,1034.39
2017-07-19T03:18:06.362Z,1034.37
2017-07-19T03:19:06.354Z,1034.34
2017-07-19T03:20:06.348Z,1034.34
2017-07-19T03:21:06.343Z,1034.37
2017-07-19T03:22:06.339Z,1034.33
2017-07-19T03:23:06.332Z,1034.36
2017-07-19T03:24:06.326Z,1034.32
2017-07-19T03:25:06.317Z,1034.35
2017-07-19T03:26:06.319Z,1034.33
2017-07-19T03:27:06.312Z,1034.31
2017-07-19T03:28:06.308Z,1034.33
2017-07-19T03:29:06.300Z,1034.36
2017-07-19T03:30:06.295Z,1034.34
2017-07-19T03:31:06.292Z,1034.31
2017-07-19T03:32:06.286Z,1034.34
2017-07-19T03:33:06.282Z,1034.3
2017-07-19T03:34:06.273Z,1034.28
2017-07-19T03:35:06.273Z,1034.29
2017-07-19T03:36:06.265Z,1034.27
2017-07-19T03:37:06.261Z,1034.23
2017-07-19T03:38:06.507Z,1034.24
2017-07-19T03:39:06.251Z,1034.2
2017-07-19T03:40:06.249Z,1034.22
2017-07-19T03:41:06.243Z,1034.22
2017-07-19T03:42:06.232Z,1034.18
2017-07-19T03:43:06.580Z,1034.15
2017-07-19T03:44:06.230Z,1034.06
2017-07-19T03:45:06.216Z,1033.96
2017-07-19T03:46:06.218Z,1033.89
2017-07-19T03:47:06.210Z,1033.75
2017-07-19T03:48:06.457Z,1033.59
2017-07-19T03:49:06.203Z,1033.48
2017-07-19T03:50:06.193Z,1033.28
2017-07-19T03:51:06.194Z,1033.19
2017-07-19T03:52:06.184Z,1033.03
2017-07-19T03:53:06.484Z,1032.91
2017-07-19T03:54:06.177Z,1032.76
2017-07-19T03:55:06.175Z,1032.64
2017-07-19T03:56:06.170Z,1032.55
2017-07-19T03:57:06.166Z,1032.46
2017-07-19T03:58:06.414Z,1032.34
2017-07-19T03:59:06.157Z,1032.23
2017-07-19T04:00:06.156Z,1032.11
2017-07-19T04:01:06.152Z,1032.07
2017-07-19T04:02:06.147Z,1031.9
2017-07-19T04:03:06.460Z,1031.83
2017-07-19T04:04:06.137Z,1031.71
2017-07-19T04:05:06.137Z,1031.65
2017-07-19T04:06:06.135Z,1031.57
2017-07-19T04:07:06.128Z,1031.49
2017-07-19T04:08:06.124Z,1031.41
2017-07-19T04:09:06.127Z,1031.33
2017-07-19T04:10:06.121Z,1031.24
2017-07-19T04:11:06.120Z,1031.14
2017-07-19T04:12:06.115Z,1031.12
2017-07-19T04:13:06.113Z,1031.04
2017-07-19T04:14:06.110Z,1030.96
2017-07-19T04:15:06.135Z,1030.83
2017-07-19T04:16:06.106Z,1030.74
2017-07-19T04:17:06.107Z,1030.63
2017-07-19T04:18:06.104Z,1030.51
2017-07-19T04:19:06.104Z,1030.45
2017-07-19T04:20:06.098Z,1030.38
2017-07-19T04:21:06.101Z,1030.33
2017-07-19T04:22:06.099Z,1030.2
2017-07-19T04:23:06.095Z,1030.08
2017-07-19T04:24:06.099Z,1030.05
2017-07-19T04:25:06.096Z,1030
2017-07-19T04:26:06.098Z,1029.95
2017-07-19T04:27:06.093Z,1029.92
2017-07-19T04:28:06.097Z,1029.92
2017-07-19T04:29:06.094Z,1029.92
2017-07-19T04:30:06.095Z,1029.84
2017-07-19T04:31:06.097Z,1029.73
2017-07-19T04:32:06.095Z,1029.64
2017-07-19T04:33:06.097Z,1029.58
2017-07-19T04:34:06.099Z,1029.45
2017-07-19T04:35:06.098Z,1029.27
2017-07-19T04:36:06.098Z,1029.18
2017-07-19T04:37:06.102Z,1029
2017-07-19T04:38:06.099Z,1028.87
2017-07-19T04:39:06.102Z,1028.76
2017-07-19T04:40:06.104Z,1028.66
2017-07-19T04:41:06.104Z,1028.56
2017-07-19T04:42:06.110Z,1028.5
2017-07-19T04:43:06.110Z,1028.37
2017-07-19T04:44:06.113Z,1028.39
2017-07-19T04:45:06.113Z,1028.69
2017-07-19T04:46:06.118Z,1028.54
2017-07-19T04:47:06.122Z,1028.49
2017-07-19T04:48:06.126Z,1028.49
2017-07-19T04:49:06.127Z,1028.64
2017-07-19T04:50:06.135Z,1028.58
2017-07-19T04:51:06.130Z,1028.53
2017-07-19T04:52:06.134Z,1028.43
2017-07-19T04:53:06.139Z,1028.29
2017-07-19T04:54:06.149Z,1028.21
2017-07-19T04:55:06.151Z,1028.09
2017-07-19T04:56:06.156Z,1028.01
2017-07-19T04:57:06.160Z,1027.95
2017-07-19T04:58:06.163Z,1028.1
2017-07-19T04:59:06.166Z,1028.06
2017-07-19T05:00:06.175Z,1027.94
2017-07-19T05:01:06.176Z,1027.87
2017-07-19T05:02:06.183Z,1027.81
2017-07-19T05:03:06.186Z,1027.73
2017-07-19T05:04:06.193Z,1027.6
2017-07-19T05:05:06.198Z,1027.55
2017-07-19T05:06:06.201Z,1027.48
2017-07-19T05:07:06.207Z,1027.53
2017-07-19T05:08:06.214Z,1027.55
2017-07-19T05:09:06.220Z,1027.42
2017-07-19T05:10:06.226Z,1027.31
2017-07-19T05:11:06.229Z,1027.26
2017-07-19T05:12:06.237Z,1027.24
2017-07-19T05:13:06.240Z,1027.12
2017-07-19T05:14:06.250Z,1026.98
2017-07-19T05:15:06.257Z,1026.95
2017-07-19T05:16:06.264Z,1026.87
2017-07-19T05:17:06.268Z,1026.7
2017-07-19T05:18:06.274Z,1026.78
2017-07-19T05:19:06.285Z,1026.71
2017-07-19T05:20:06.294Z,1026.58
2017-07-19T05:21:06.298Z,1026.44
2017-07-19T05:22:06.307Z,1026.33
2017-07-19T05:23:06.317Z,1026.28
2017-07-19T05:24:06.323Z,1026.25
2017-07-19T05:25:06.327Z,1026.16
2017-07-19T05:26:06.336Z,1026.26
2017-07-19T05:27:06.345Z,1026.3
2017-07-19T05:28:06.357Z,1026.23
2017-07-19T05:29:06.359Z,1025.98
2017-07-19T05:30:06.372Z,1026.19
2017-07-19T05:31:06.381Z,1026.05
2017-07-19T05:32:06.392Z,1026
2017-07-19T05:33:06.396Z,1025.98
2017-07-19T05:34:06.407Z,1026.02
2017-07-19T05:35:06.417Z,1025.99
2017-07-19T05:36:06.425Z,1025.99
2017-07-19T05:37:06.433Z,1025.91
2017-07-19T05:38:06.444Z,1025.87
2017-07-19T05:39:06.455Z,1025.85
2017-07-19T05:40:06.464Z,1025.79
2017-07-19T05:41:06.472Z,1025.81
2017-07-19T05:42:06.485Z,1025.86
2017-07-19T05:43:06.495Z,1025.8
2017-07-19T05:44:06.504Z,1025.76
2017-07-19T05:45:06.517Z,1025.75
2017-07-19T05:46:06.521Z,1025.78
2017-07-19T05:47:06.533Z,1025.73
2017-07-19T05:48:06.544Z,1025.73
2017-07-19T05:49:06.555Z,1025.72
2017-07-19T05:50:06.566Z,1025.71
2017-07-19T05:51:06.578Z,1025.68
2017-07-19T05:52:06.587Z,1025.63
2017-07-19T05:53:06.600Z,1025.54
2017-07-19T05:54:06.607Z,1025.56
2017-07-19T05:55:06.621Z,1025.64
2017-07-19T05:56:06.631Z,1025.65
2017-07-19T05:57:06.642Z,1025.57
2017-07-19T05:58:06.654Z,1025.45
2017-07-19T05:59:06.663Z,1025.26
2017-07-19T06:00:06.672Z,1025.09
2017-07-19T06:01:06.686Z,1025.19
2017-07-19T06:02:06.700Z,1025.14
2017-07-19T06:03:06.710Z,1024.94
2017-07-19T06:04:06.719Z,1024.91
2017-07-19T06:05:06.734Z,1024.89
2017-07-19T06:06:06.739Z,1024.78
2017-07-19T06:07:06.751Z,1024.65
2017-07-19T06:08:06.763Z,1024.46
2017-07-19T06:09:06.777Z,1024.39
2017-07-19T06:10:06.793Z,1024.37
2017-07-19T06:11:06.803Z,1024.33
2017-07-19T06:12:06.816Z,1024.31
2017-07-19T06:13:06.825Z,1024.38
2017-07-19T06:14:06.843Z,1024.5
2017-07-19T06:15:06.849Z,1024.66
2017-07-19T06:16:06.865Z,1024.78
2017-07-19T06:17:06.880Z,1024.86
2017-07-19T06:18:06.888Z,1024.93
2017-07-19T06:19:06.905Z,1024.99
2017-07-19T06:20:06.915Z,1024.87
2017-07-19T06:21:06.932Z,1024.71
2017-07-19T06:22:06.940Z,1024.49
2017-07-19T06:23:06.954Z,1024.27
2017-07-19T06:24:06.965Z,1024.08
2017-07-19T06:25:06.981Z,1023.97
2017-07-19T06:26:06.996Z,1023.87
2017-07-19T06:27:07.007Z,1023.75
2017-07-19T06:28:07.025Z,1023.74
2017-07-19T06:29:07.035Z,1023.75
2017-07-19T06:30:07.050Z,1023.75
2017-07-19T06:31:07.059Z,1023.72
2017-07-19T06:32:07.078Z,1023.66
2017-07-19T06:33:07.092Z,1023.65
2017-07-19T06:34:07.108Z,1023.56
2017-07-19T06:35:07.121Z,1023.57
2017-07-19T06:36:07.138Z,1023.58
2017-07-19T06:37:07.153Z,1023.53
2017-07-19T06:38:07.165Z,1023.48
2017-07-19T06:39:07.180Z,1023.44
2017-07-19T06:40:07.193Z,1023.35
2017-07-19T06:41:07.206Z,1023.38
2017-07-19T06:42:07.224Z,1023.34
2017-07-19T06:43:07.255Z,1023.35
2017-07-19T06:44:07.252Z,1023.22
2017-07-19T06:45:07.269Z,1023.07
2017-07-19T06:46:07.281Z,1023
2017-07-19T06:47:07.292Z,1022.91
2017-07-19T06:48:07.310Z,1022.88
2017-07-19T06:49:07.327Z,1023.02
2017-07-19T06:50:07.342Z,1023.43
2017-07-19T06:51:07.360Z,1023.56
2017-07-19T06:52:07.374Z,1023.65
2017-07-19T06:53:07.388Z,1023.76
2017-07-19T06:54:07.408Z,1023.86
2017-07-19T06:55:07.421Z,1024
2017-07-19T06:56:07.433Z,1024.11
2017-07-19T06:57:07.443Z,1024.21
2017-07-19T06:58:07.458Z,1024.29
2017-07-19T06:59:07.475Z,1024.28
2017-07-19T07:00:07.491Z,1024.27
2017-07-19T07:01:07.504Z,1024.17
2017-07-19T07:02:07.519Z,1024.1
2017-07-19T07:03:07.533Z,1024.09
2017-07-19T07:04:07.545Z,1024.11
2017-07-19T07:05:07.561Z,1024.19
2017-07-19T07:06:07.572Z,1024.17
2017-07-19T07:07:07.590Z,1024.29
2017-07-19T07:08:07.614Z,1024.27
2017-07-19T07:09:07.631Z,1024.35
2017-07-19T07:10:07.631Z,1024.39
2017-07-19T07:11:07.646Z,1024.43
2017-07-19T07:12:07.660Z,1024.35
2017-07-19T07:13:07.711Z,1024.33
2017-07-19T07:14:07.689Z,1024.3
2017-07-19T07:15:07.701Z,1024.27
2017-07-19T07:16:07.711Z,1024.18
2017-07-19T07:17:07.730Z,1024.16
2017-07-19T07:18:07.737Z,1024.19
2017-07-19T07:19:07.754Z,1024.17
2017-07-19T07:20:07.762Z,1024.18
2017-07-19T07:21:07.780Z,1024.18
2017-07-19T07:22:07.789Z,1024.05
2017-07-19T07:23:07.809Z,1024.04
2017-07-19T07:24:07.820Z,1023.94
2017-07-19T07:25:07.833Z,1023.9
2017-07-19T07:26:07.843Z,1023.83
2017-07-19T07:27:07.857Z,1023.78
2017-07-19T07:28:07.870Z,1023.73
2017-07-19T07:29:07.890Z,1023.67
2017-07-19T07:30:07.905Z,1023.66
2017-07-19T07:31:07.912Z,1023.59
2017-07-19T07:32:07.930Z,1023.56
2017-07-19T07:33:07.943Z,1023.55
2017-07-19T07:34:07.953Z,1023.55
2017-07-19T07:35:07.984Z,1023.65
2017-07-19T07:36:07.981Z,1023.78
2017-07-19T07:37:07.997Z,1023.89
2017-07-19T07:38:08.008Z,1024.08
2017-07-19T07:39:08.026Z,1024.2
2017-07-19T07:40:08.040Z,1024.24
2017-07-19T07:41:08.057Z,1024.31
2017-07-19T07:42:08.064Z,1024.35
2017-07-19T07:43:08.077Z,1024.28
2017-07-19T07:44:08.092Z,1024.27
2017-07-19T07:45:08.109Z,1024.27
2017-07-19T07:46:08.120Z,1024.22
2017-07-19T07:47:08.135Z,1024.16
2017-07-19T07:48:08.145Z,1024.22
2017-07-19T07:49:08.160Z,1024.23
2017-07-19T07:50:08.177Z,1024.16
2017-07-19T07:51:08.185Z,1024
2017-07-19T07:52:08.203Z,1023.9
2017-07-19T07:53:08.215Z,1023.79
2017-07-19T07:54:08.230Z,1023.69
2017-07-19T07:55:08.240Z,1023.67
2017-07-19T07:56:08.254Z,1023.56
2017-07-19T07:57:08.267Z,1023.43
2017-07-19T07:58:08.281Z,1023.41
2017-07-19T07:59:08.295Z,1023.41
2017-07-19T08:00:08.305Z,1023.4
2017-07-19T08:01:08.324Z,1023.47
2017-07-19T08:02:08.335Z,1023.53
2017-07-19T08:03:08.345Z,1023.51
2017-07-19T08:04:08.663Z,1023.56
2017-07-19T08:05:08.374Z,1023.51
2017-07-19T08:06:08.390Z,1023.49
2017-07-19T08:07:08.401Z,1023.38
2017-07-19T08:08:08.418Z,1023.25
2017-07-19T08:09:08.732Z,1023.08
2017-07-19T08:10:08.441Z,1022.85
2017-07-19T08:11:08.452Z,1022.6
2017-07-19T08:12:08.470Z,1022.47
2017-07-19T08:13:08.482Z,1022.37
2017-07-19T08:14:08.843Z,1022.48
2017-07-19T08:15:08.506Z,1022.56
2017-07-19T08:16:08.520Z,1022.6
2017-07-19T08:17:08.537Z,1022.63
2017-07-19T08:18:08.553Z,1022.59
2017-07-19T08:19:08.811Z,1022.53
2017-07-19T08:20:08.575Z,1022.63
2017-07-19T08:21:08.588Z,1022.63
2017-07-19T08:22:08.603Z,1022.59
2017-07-19T08:23:08.617Z,1022.48
2017-07-19T08:24:08.926Z,1022.35
2017-07-19T08:25:08.643Z,1022.19
2017-07-19T08:26:08.658Z,1022.09
2017-07-19T08:27:08.674Z,1022.1
2017-07-19T08:28:08.685Z,1022.11
2017-07-19T08:29:09.001Z,1022.17
2017-07-19T08:30:08.710Z,1022.32
2017-07-19T08:31:08.730Z,1022.42
2017-07-19T08:32:08.738Z,1022.41
2017-07-19T08:33:08.754Z,1022.46
2017-07-19T08:34:09.019Z,1022.41
2017-07-19T08:35:08.784Z,1022.35
2017-07-19T08:36:08.796Z,1022.23
2017-07-19T08:37:08.808Z,1022.01
2017-07-19T08:38:08.826Z,1021.83
2017-07-19T08:39:09.139Z,1021.73
2017-07-19T08:40:08.857Z,1021.53
2017-07-19T08:41:08.865Z,1021.58
2017-07-19T08:42:08.882Z,1021.68
2017-07-19T08:43:08.893Z,1021.8
2017-07-19T08:44:08.906Z,1021.96
2017-07-19T08:45:08.918Z,1022.04
2017-07-19T08:46:08.939Z,1022.16
2017-07-19T08:47:08.950Z,1022.2
2017-07-19T08:48:08.966Z,1022.08
2017-07-19T08:49:08.980Z,1021.97
2017-07-19T08:50:08.990Z,1021.82
2017-07-19T08:51:09.002Z,1021.81
2017-07-19T08:52:09.017Z,1021.8
2017-07-19T08:53:09.029Z,1021.9
2017-07-19T08:54:09.046Z,1022
2017-07-19T08:55:09.060Z,1022.23
2017-07-19T08:56:09.074Z,1022.9
2017-07-19T08:57:09.083Z,1023.81
2017-07-19T08:58:09.098Z,1024.61
2017-07-19T08:59:09.109Z,1025.16
2017-07-19T09:00:09.124Z,1025.68
2017-07-19T09:01:09.134Z,1026.1
2017-07-19T09:02:09.150Z,1026.46
2017-07-19T09:03:09.166Z,1026.79
2017-07-19T09:04:09.173Z,1027.1
2017-07-19T09:05:09.181Z,1027.34
2017-07-19T09:06:09.194Z,1027.53
2017-07-19T09:07:09.212Z,1027.65
2017-07-19T09:08:09.218Z,1027.94
2017-07-19T09:09:09.227Z,1028.17
2017-07-19T09:10:09.236Z,1028.32
2017-07-19T09:11:09.247Z,1028.46
2017-07-19T09:12:09.254Z,1028.6
2017-07-19T09:13:09.262Z,1028.75
2017-07-19T09:14:09.270Z,1028.83
2017-07-19T09:15:09.284Z,1028.9
2017-07-19T09:16:09.289Z,1029.01
2017-07-19T09:17:09.294Z,1029.03
2017-07-19T09:18:09.306Z,1029.07
2017-07-19T09:19:09.310Z,1029.1
2017-07-19T09:20:09.318Z,1029.14
2017-07-19T09:21:09.324Z,1029.15
2017-07-19T09:22:09.330Z,1029.18
2017-07-19T09:23:09.342Z,1029.16
2017-07-19T09:24:09.348Z,1029.22
2017-07-19T09:25:09.353Z,1029.25
2017-07-19T09:26:09.353Z,1029.26
2017-07-19T09:27:09.362Z,1029.31
2017-07-19T09:28:09.368Z,1029.31
2017-07-19T09:29:09.375Z,1029.34
2017-07-19T09:30:09.377Z,1029.32
2017-07-19T09:31:09.384Z,1029.33
2017-07-19T09:32:09.388Z,1029.26
2017-07-19T09:33:09.394Z,1029.25
2017-07-19T09:34:09.400Z,1029.22
2017-07-19T09:35:09.404Z,1029.18
2017-07-19T09:36:09.410Z,1029.16
2017-07-19T09:37:09.416Z,1029.21
2017-07-19T09:38:09.419Z,1029.22
2017-07-19T09:39:09.422Z,1029.26
2017-07-19T09:40:09.428Z,1029.24
2017-07-19T09:41:09.432Z,1029.23
2017-07-19T09:42:09.435Z,1029.27
2017-07-19T09:43:09.445Z,1029.25
2017-07-19T09:44:09.448Z,1029.29
2017-07-19T09:45:09.452Z,1029.22
2017-07-19T09:46:09.456Z,1029.24
2017-07-19T09:47:09.462Z,1029.19
2017-07-19T09:48:09.460Z,1029.18
2017-07-19T09:49:09.467Z,1029.12
2017-07-19T09:50:09.471Z,1029.11
2017-07-19T09:51:09.474Z,1029.03
2017-07-19T09:52:09.482Z,1029.02
2017-07-19T09:53:09.489Z,1028.98
2017-07-19T09:54:09.488Z,1028.96
2017-07-19T09:55:09.490Z,1029
2017-07-19T09:56:09.497Z,1029.02
2017-07-19T09:57:09.500Z,1029.01
2017-07-19T09:58:09.508Z,1028.98
2017-07-19T09:59:09.509Z,1028.96
2017-07-19T10:00:09.515Z,1028.87
2017-07-19T10:01:09.516Z,1028.88
2017-07-19T10:02:09.524Z,1028.9
2017-07-19T10:03:09.526Z,1028.96
2017-07-19T10:04:09.529Z,1028.99
2017-07-19T10:05:09.531Z,1028.99
2017-07-19T10:06:09.541Z,1029
2017-07-19T10:07:09.544Z,1028.97
2017-07-19T10:08:09.545Z,1028.98
2017-07-19T10:09:09.553Z,1028.97
2017-07-19T10:10:09.553Z,1028.96
2017-07-19T10:11:09.559Z,1028.92
2017-07-19T10:12:09.560Z,1028.92
2017-07-19T10:13:09.564Z,1028.87
2017-07-19T10:14:09.572Z,1028.79
2017-07-19T10:15:09.581Z,1028.78
2017-07-19T10:16:09.582Z,1028.7
2017-07-19T10:17:09.581Z,1028.64
2017-07-19T10:18:09.590Z,1028.53
2017-07-19T10:19:09.589Z,1028.49
2017-07-19T10:20:09.600Z,1028.44
2017-07-19T10:21:09.598Z,1028.38
2017-07-19T10:22:09.605Z,1028.37
2017-07-19T10:23:09.609Z,1028.32
2017-07-19T10:24:09.615Z,1028.33
2017-07-19T10:25:09.615Z,1028.33
2017-07-19T10:26:09.624Z,1028.31
2017-07-19T10:27:09.627Z,1028.33
2017-07-19T10:28:09.631Z,1028.28
2017-07-19T10:29:09.639Z,1028.21
2017-07-19T10:30:09.637Z,1028.21
2017-07-19T10:31:09.643Z,1028.21
2017-07-19T10:32:09.645Z,1028.11
2017-07-19T10:33:09.648Z,1028.05
2017-07-19T10:34:09.656Z,1028.07
2017-07-19T10:35:09.664Z,1027.97
2017-07-19T10:36:09.665Z,1027.94
2017-07-19T10:37:09.667Z,1027.91
2017-07-19T10:38:09.675Z,1027.87
2017-07-19T10:39:09.680Z,1027.84
2017-07-19T10:40:09.679Z,1027.81
2017-07-19T10:41:09.685Z,1027.79
2017-07-19T10:42:09.689Z,1027.81
2017-07-19T10:43:09.695Z,1027.81
2017-07-19T10:44:09.699Z,1027.83
2017-07-19T10:45:09.705Z,1027.85
2017-07-19T10:46:09.708Z,1027.8
2017-07-19T10:47:09.714Z,1027.78
2017-07-19T10:48:09.716Z,1027.78
2017-07-19T10:49:09.728Z,1027.65
2017-07-19T10:50:09.726Z,1027.57
2017-07-19T10:51:09.733Z,1027.49
2017-07-19T10:52:09.735Z,1027.39
2017-07-19T10:53:09.742Z,1027.36
2017-07-19T10:54:09.745Z,1027.25
2017-07-19T10:55:09.751Z,1027.19
2017-07-19T10:56:09.753Z,1027.13
2017-07-19T10:57:09.762Z,1027.11
2017-07-19T10:58:09.762Z,1027.12
2017-07-19T10:59:09.772Z,1027.1
2017-07-19T11:00:09.775Z,1027.11
2017-07-19T11:01:09.784Z,1027.09
2017-07-19T11:02:09.787Z,1027.09
2017-07-19T11:03:09.793Z,1027.04
2017-07-19T11:04:09.797Z,1027
2017-07-19T11:05:09.803Z,1027.02
2017-07-19T11:06:09.803Z,1027.02
2017-07-19T11:07:09.814Z,1027.01
2017-07-19T11:08:09.814Z,1026.94
2017-07-19T11:09:09.821Z,1026.92
2017-07-19T11:10:09.829Z,1026.93
2017-07-19T11:11:09.830Z,1026.88
2017-07-19T11:12:09.835Z,1026.83
2017-07-19T11:13:09.847Z,1026.81
2017-07-19T11:14:09.853Z,1026.76
2017-07-19T11:15:09.857Z,1026.78
2017-07-19T11:16:09.871Z,1026.69
2017-07-19T11:17:09.872Z,1026.67
2017-07-19T11:18:09.873Z,1026.68
2017-07-19T11:19:09.878Z,1026.66
2017-07-19T11:20:09.883Z,1026.58
2017-07-19T11:21:09.890Z,1026.61
2017-07-19T11:22:09.896Z,1026.57
2017-07-19T11:23:09.900Z,1026.56
2017-07-19T11:24:09.906Z,1026.51
2017-07-19T11:25:09.915Z,1026.5
2017-07-19T11:26:09.919Z,1026.45
2017-07-19T11:27:09.931Z,1026.38
2017-07-19T11:28:09.928Z,1026.39
2017-07-19T11:29:09.939Z,1026.38
2017-07-19T11:30:09.944Z,1026.33
2017-07-19T11:31:09.948Z,1026.33
2017-07-19T11:32:09.951Z,1026.27
2017-07-19T11:33:09.961Z,1026.21
2017-07-19T11:34:09.966Z,1026.12
2017-07-19T11:35:09.970Z,1026.04
2017-07-19T11:36:09.977Z,1026
2017-07-19T11:37:09.985Z,1025.97
2017-07-19T11:38:09.988Z,1025.95
2017-07-19T11:39:09.995Z,1025.83
2017-07-19T11:40:10.000Z,1025.88
2017-07-19T11:41:10.009Z,1025.85
2017-07-19T11:42:10.013Z,1025.88
2017-07-19T11:43:10.018Z,1025.92
2017-07-19T11:44:10.027Z,1025.96
2017-07-19T11:45:10.035Z,1025.96
2017-07-19T11:46:10.039Z,1026.02
2017-07-19T11:47:10.052Z,1026
2017-07-19T11:48:10.052Z,1025.92
2017-07-19T11:49:10.058Z,1025.89
2017-07-19T11:50:10.065Z,1025.88
2017-07-19T11:51:10.072Z,1025.87
2017-07-19T11:52:10.078Z,1025.94
2017-07-19T11:53:10.084Z,1025.96
2017-07-19T11:54:10.088Z,1026.01
2017-07-19T11:55:10.397Z,1026.12
2017-07-19T11:56:10.100Z,1026.16
2017-07-19T11:57:10.111Z,1026.15
2017-07-19T11:58:10.118Z,1026.13
2017-07-19T11:59:10.124Z,1026.1
2017-07-19T12:00:10.126Z,1026.08
2017-07-19T12:01:10.135Z,1025.95
2017-07-19T12:02:10.142Z,1025.93
2017-07-19T12:03:10.150Z,1025.84
2017-07-19T12:04:10.153Z,1025.76
2017-07-19T12:05:10.159Z,1025.65
2017-07-19T12:06:10.166Z,1025.55
2017-07-19T12:07:10.172Z,1025.59
2017-07-19T12:08:10.182Z,1025.54